KBNO/BNO METAR and TAF weather

Enter ICAO airport designator
Station Type Date Time Source
KBNO METAR 2022/09/26 08:53 UTC NOAA

KBNO 260853Z AUTO 31004KT 10SM CLR 07/M05 A3021 RMK AO2 SLP201 T00671050 58001 $


Station Type Date Time Source
KBNO Decoded METAR 2022/09/26 08:53 UTC NOAA

BURNS MUNICIPAL AIRPORT, OR, United States (KBNO) 43-36N 118-57W 1264M
Sep 26, 2022 - 04:53 AM EDT / 2022.09.26 0853 UTC
Wind: from the NW (310 degrees) at 5 MPH (4 KT):0
Visibility: 10 mile(s):0
Sky conditions: clear
Temperature: 44.1 F (6.7 C)
Dew Point: 23.0 F (-5.0 C)
Relative Humidity: 42%
Pressure (altimeter): 30.21 in. Hg (1023 hPa)
Pressure tendency: 0.00 inches (0.1 hPa) lower than three hours ago
ob: KBNO 260853Z AUTO 31004KT 10SM CLR 07/M05 A3021 RMK AO2 SLP201 T00671050 58001
cycle: 9

Station Type Date Time Source
KBNO TAF 2022/09/26 06:22 UTC NOAA

TAF KBNO 260520Z 2606/2706 05006KT P6SM SKC
FM261000 VRB04KT P6SM SKC
FM261800 15007KT P6SM SKC
FM270200 05007KT P6SM SKC

Example: see airport list